TimeEDT,TemperatureF,Dew PointF,Humidity,Sea Level PressureIn,VisibilityMPH,Wind Direction,Wind SpeedMPH,Gust SpeedMPH,PrecipitationIn,Events,Conditions,WindDirDegrees,DateUTC
12:53 AM,69.1,63.0,81,30.03,10.0,Calm,Calm,-,N/A,,Clear,0,2012-09-29 04:53:00
1:53 AM,69.1,64.9,87,30.02,10.0,Calm,Calm,-,N/A,,Clear,0,2012-09-29 05:53:00
2:53 AM,69.1,64.9,87,30.02,10.0,NW,3.5,-,N/A,,Clear,310,2012-09-29 06:53:00
3:53 AM,68.0,64.9,90,30.00,10.0,Calm,Calm,-,N/A,,Scattered Clouds,0,2012-09-29 07:53:00
4:53 AM,66.9,63.0,87,29.99,10.0,WNW,4.6,-,N/A,,Clear,300,2012-09-29 08:53:00
5:53 AM,66.9,63.0,87,29.98,10.0,Calm,Calm,-,N/A,,Scattered Clouds,0,2012-09-29 09:53:00
6:53 AM,66.9,63.0,87,29.99,10.0,NW,3.5,-,N/A,,Mostly Cloudy,310,2012-09-29 10:53:00
7:53 AM,66.9,63.0,87,30.00,10.0,WNW,3.5,-,N/A,,Clear,300,2012-09-29 11:53:00
8:53 AM,68.0,62.1,81,30.00,10.0,WNW,3.5,-,N/A,,Partly Cloudy,290,2012-09-29 12:53:00
9:53 AM,70.0,63.0,78,30.01,10.0,NW,3.5,-,N/A,,Partly Cloudy,320,2012-09-29 13:53:00
10:53 AM,70.0,64.0,81,30.00,10.0,Calm,Calm,-,N/A,,Mostly Cloudy,0,2012-09-29 14:53:00
11:53 AM,71.1,64.0,78,30.00,10.0,West,3.5,-,0.00,,Overcast,270,2012-09-29 15:53:00
12:53 PM,72.0,64.9,78,29.98,10.0,WNW,5.8,-,0.00,Rain,Light Rain,300,2012-09-29 16:53:00
1:53 PM,75.0,63.0,66,29.95,10.0,WNW,6.9,-,N/A,,Scattered Clouds,300,2012-09-29 17:53:00
2:53 PM,75.0,63.0,66,29.93,10.0,WNW,8.1,-,N/A,,Mostly Cloudy,290,2012-09-29 18:53:00
3:53 PM,75.9,63.0,64,29.91,10.0,West,10.4,-,N/A,,Partly Cloudy,260,2012-09-29 19:53:00
4:53 PM,75.9,63.0,64,29.89,10.0,West,9.2,-,N/A,,Clear,270,2012-09-29 20:53:00
6:53 PM,73.0,62.1,68,29.89,10.0,West,8.1,-,N/A,,Clear,270,2012-09-29 22:53:00
7:53 PM,71.1,63.0,75,29.90,10.0,West,5.8,-,N/A,,Clear,270,2012-09-29 23:53:00
8:53 PM,70.0,63.0,78,29.91,10.0,WNW,5.8,-,N/A,,Clear,290,2012-09-30 00:53:00
9:53 PM,66.9,64.0,90,29.91,10.0,WSW,3.5,-,N/A,,Clear,250,2012-09-30 01:53:00
10:53 PM,66.9,64.0,90,29.92,10.0,West,3.5,-,N/A,,Clear,260,2012-09-30 02:53:00
11:53 PM,66.0,63.0,90,29.92,10.0,West,3.5,-,N/A,,Clear,280,2012-09-30 03:53:00